createdAt,value
2023-10-20T00:01:38.487Z,22.33
2023-10-20T00:06:40.569Z,24.27
2023-10-20T00:11:46.291Z,24.27
2023-10-20T00:16:48.009Z,24.83
2023-10-20T00:21:49.961Z,23.70
2023-10-20T00:26:51.665Z,23.60
2023-10-20T00:31:53.640Z,22.03
2023-10-20T00:36:55.685Z,21.77
2023-10-20T00:41:57.621Z,21.70
2023-10-20T00:46:59.971Z,22.37
2023-10-20T00:52:02.304Z,22.10
2023-10-20T00:57:04.065Z,22.40
2023-10-20T01:02:06.087Z,21.87
2023-10-20T01:07:07.875Z,23.93
2023-10-20T01:12:09.638Z,24.23
2023-10-20T01:17:11.429Z,22.60
2023-10-20T01:22:13.174Z,26.90
2023-10-20T01:27:14.940Z,24.93
2023-10-20T01:32:16.938Z,26.07
2023-10-20T01:37:19.252Z,26.13
2023-10-20T01:42:22.344Z,22.50
2023-10-20T01:47:24.122Z,24.27
2023-10-20T01:52:25.841Z,22.83
2023-10-20T01:57:27.541Z,20.17
2023-10-20T02:02:29.360Z,18.00
2023-10-20T02:07:31.116Z,14.87
2023-10-20T02:12:32.834Z,18.30
2023-10-20T02:17:35.850Z,20.03
2023-10-20T02:22:37.616Z,19.77
2023-10-20T02:27:43.476Z,17.67
2023-10-20T02:32:45.424Z,17.90
2023-10-20T02:37:48.404Z,17.13
2023-10-20T02:42:50.127Z,16.03
2023-10-20T02:47:52.457Z,12.50
2023-10-20T02:52:54.241Z,2.07
2023-10-20T02:57:56.148Z,4.17
2023-10-20T03:02:59.650Z,3.00
2023-10-20T03:08:02.757Z,2.90
2023-10-20T03:13:07.406Z,2.60
2023-10-20T03:18:09.234Z,2.43
2023-10-20T03:23:14.796Z,2.40
2023-10-20T03:28:16.647Z,2.77
2023-10-20T03:33:18.470Z,2.23
2023-10-20T03:38:20.253Z,1.93
2023-10-20T03:43:24.877Z,1.73
2023-10-20T03:48:29.038Z,1.80
2023-10-20T03:53:41.041Z,2.53
2023-10-20T03:58:43.641Z,2.10
2023-10-20T04:03:50.848Z,2.57
2023-10-20T04:08:52.725Z,2.40
2023-10-20T04:13:54.466Z,2.73
2023-10-20T04:18:56.248Z,3.33
2023-10-20T04:23:57.945Z,4.60
2023-10-20T04:29:14.695Z,4.87
2023-10-20T04:34:35.461Z,4.77
2023-10-20T04:39:55.889Z,5.17
2023-10-20T04:45:00.496Z,4.40
2023-10-20T04:50:20.684Z,4.67
2023-10-20T04:55:28.744Z,4.60
2023-10-20T05:00:35.934Z,4.37
2023-10-20T05:06:01.225Z,6.67
2023-10-20T05:11:02.926Z,9.73
2023-10-20T05:16:04.956Z,11.20
2023-10-20T05:21:07.617Z,15.03
2023-10-20T05:26:12.133Z,18.27
2023-10-20T05:31:14.196Z,19.03
2023-10-20T05:36:15.981Z,21.40
2023-10-20T05:41:17.800Z,21.97
2023-10-20T05:46:19.824Z,20.47
2023-10-20T05:51:22.689Z,22.17
2023-10-20T05:56:24.471Z,22.63
2023-10-20T06:01:26.228Z,24.40
2023-10-20T06:06:28.169Z,25.30
2023-10-20T06:11:30.046Z,27.40
2023-10-20T06:16:33.400Z,26.70
2023-10-20T06:21:36.401Z,27.87
2023-10-20T06:26:38.296Z,25.17
2023-10-20T06:31:43.495Z,23.07
2023-10-20T06:36:49.345Z,24.37
2023-10-20T06:41:51.303Z,25.57
2023-10-20T06:46:54.301Z,28.03
2023-10-20T06:51:56.166Z,31.77
2023-10-20T06:56:58.057Z,38.50
2023-10-20T07:02:01.677Z,34.63
2023-10-20T07:07:06.446Z,27.57
2023-10-20T07:12:11.369Z,23.93
2023-10-20T07:17:15.545Z,22.00
2023-10-20T07:22:17.630Z,17.20
2023-10-20T07:27:20.450Z,20.87
2023-10-20T07:32:22.495Z,18.30
2023-10-20T07:37:24.253Z,15.33
2023-10-20T07:42:25.979Z,11.23
2023-10-20T07:47:28.455Z,10.90
2023-10-20T07:52:30.236Z,9.90
2023-10-20T07:57:32.042Z,12.57
2023-10-20T08:02:33.857Z,8.60
2023-10-20T08:07:35.816Z,6.70
2023-10-20T08:12:38.029Z,4.70
2023-10-20T08:17:39.878Z,4.53
2023-10-20T08:22:41.760Z,3.60
2023-10-20T08:27:46.243Z,2.60
2023-10-20T08:32:48.507Z,2.50
2023-10-20T08:37:50.279Z,1.30
2023-10-20T08:42:52.809Z,1.90
2023-10-20T08:47:55.115Z,1.70
2023-10-20T08:52:57.991Z,1.40
2023-10-20T08:57:59.742Z,1.40
2023-10-20T09:03:01.951Z,1.33
2023-10-20T09:08:04.741Z,1.70
2023-10-20T09:13:06.512Z,1.10
2023-10-20T09:18:11.690Z,1.13
2023-10-20T09:23:13.973Z,1.20
2023-10-20T09:28:18.753Z,1.03
2023-10-20T09:33:22.322Z,1.10
2023-10-20T09:38:29.670Z,1.50
2023-10-20T09:43:33.072Z,1.87
2023-10-20T09:48:36.977Z,1.47
2023-10-20T09:53:39.691Z,1.50
2023-10-20T09:58:44.715Z,1.33
2023-10-20T10:04:02.001Z,1.40
2023-10-20T10:09:07.076Z,1.23
2023-10-20T10:14:09.553Z,1.60
2023-10-20T10:19:13.489Z,1.33
2023-10-20T10:24:22.681Z,2.30
2023-10-20T10:29:54.442Z,1.10
2023-10-20T10:34:58.158Z,1.43
2023-10-20T10:40:17.442Z,0.87
2023-10-20T10:45:25.151Z,0.87
2023-10-20T10:50:26.951Z,0.80
2023-10-20T10:55:29.130Z,0.67
2023-10-20T11:00:31.336Z,0.80
2023-10-20T11:05:34.114Z,0.80
2023-10-20T11:10:38.754Z,0.63
2023-10-20T11:15:44.143Z,0.67
2023-10-20T11:20:50.308Z,0.60
2023-10-20T11:25:52.522Z,0.50
2023-10-20T11:30:54.504Z,0.63
2023-10-20T11:36:00.689Z,0.70
2023-10-20T11:41:02.474Z,0.70
2023-10-20T11:46:06.425Z,0.67
2023-10-20T11:51:09.889Z,0.60
2023-10-20T11:56:12.446Z,0.80
2023-10-20T12:01:14.908Z,0.80
2023-10-20T12:06:16.641Z,0.70
2023-10-20T12:11:19.584Z,0.70
2023-10-20T12:16:26.098Z,0.60
2023-10-20T12:21:29.443Z,0.80
2023-10-20T12:26:31.719Z,0.90
2023-10-20T12:31:33.551Z,0.80
2023-10-20T12:36:37.037Z,1.20
2023-10-20T12:41:38.869Z,0.67
2023-10-20T12:46:40.998Z,0.70
2023-10-20T12:51:43.152Z,0.70
2023-10-20T12:56:44.985Z,0.60
2023-10-20T13:01:48.184Z,0.77
2023-10-20T13:06:59.866Z,0.60
2023-10-20T13:12:03.085Z,0.70
2023-10-20T13:17:05.398Z,33.13
2023-10-20T13:22:07.161Z,1.10
2023-10-20T13:27:08.946Z,4.97
2023-10-20T13:32:10.640Z,1.27
2023-10-20T13:37:12.355Z,0.83
2023-10-20T13:42:14.068Z,0.80
2023-10-20T13:47:15.894Z,0.70
2023-10-20T13:52:17.684Z,0.73
2023-10-20T13:57:19.415Z,1.30
2023-10-20T14:02:21.202Z,0.83
2023-10-20T14:07:22.982Z,17.70
2023-10-20T14:12:25.638Z,1.53
2023-10-20T14:17:27.399Z,1.30
2023-10-20T14:22:31.408Z,0.83
2023-10-20T14:27:37.108Z,0.70
2023-10-20T14:32:40.620Z,0.90
2023-10-20T14:37:42.491Z,0.70
2023-10-20T14:42:44.852Z,0.70
2023-10-20T14:47:46.788Z,1.00
2023-10-20T14:52:50.122Z,0.97
2023-10-20T14:57:51.835Z,1.03
2023-10-20T15:02:53.862Z,2.10
2023-10-20T15:07:56.614Z,1.83
2023-10-20T15:12:58.316Z,1.70
2023-10-20T15:18:00.585Z,1.67
2023-10-20T15:23:16.445Z,1.87
2023-10-20T15:28:19.470Z,4.30
2023-10-20T15:33:21.429Z,1.30
2023-10-20T15:38:23.293Z,3.70
2023-10-20T15:43:25.060Z,3.13
2023-10-20T15:48:26.904Z,2.87
2023-10-20T15:53:30.163Z,4.20
2023-10-20T15:58:32.147Z,5.07
2023-10-20T16:03:34.015Z,4.80
2023-10-20T16:08:35.909Z,4.30
2023-10-20T16:13:37.846Z,3.80
2023-10-20T16:18:39.700Z,4.80
2023-10-20T16:23:41.488Z,2.93
2023-10-20T16:28:43.393Z,2.80
2023-10-20T16:33:45.180Z,4.03
2023-10-20T16:38:47.773Z,1.93
2023-10-20T16:43:49.541Z,1.57
2023-10-20T16:48:52.485Z,1.10
2023-10-20T16:53:54.252Z,1.30
2023-10-20T16:58:56.016Z,2.20
2023-10-20T17:03:57.882Z,2.50
2023-10-20T17:09:00.305Z,2.40
2023-10-20T17:14:02.780Z,1.43
2023-10-20T17:19:04.572Z,2.37
2023-10-20T17:24:07.323Z,2.10
2023-10-20T17:29:09.132Z,2.00
2023-10-20T17:34:10.875Z,2.23
2023-10-20T17:39:12.936Z,1.60
2023-10-20T17:44:14.962Z,2.63
2023-10-20T17:49:16.759Z,6.10
2023-10-20T17:54:18.525Z,6.67
2023-10-20T17:59:20.310Z,5.20
2023-10-20T18:04:23.150Z,3.70
2023-10-20T18:09:25.003Z,2.83
2023-10-20T18:14:26.701Z,2.13
2023-10-20T18:19:28.689Z,1.50
2023-10-20T18:24:30.435Z,1.60
2023-10-20T18:29:32.149Z,1.00
2023-10-20T18:34:33.900Z,0.90
2023-10-20T18:39:35.763Z,0.80
2023-10-20T18:44:38.450Z,0.77
2023-10-20T18:49:40.204Z,0.80
2023-10-20T18:54:41.933Z,0.70
2023-10-20T18:59:43.704Z,0.50
2023-10-20T19:04:45.440Z,1.00
2023-10-20T19:09:47.681Z,0.80
2023-10-20T19:14:49.666Z,0.50
2023-10-20T19:19:51.456Z,0.60
2023-10-20T19:24:53.236Z,0.70
2023-10-20T19:29:55.050Z,0.80
2023-10-20T19:34:58.821Z,0.63
2023-10-20T19:40:00.541Z,0.50
2023-10-20T19:45:04.344Z,0.70
2023-10-20T19:50:07.314Z,0.80
2023-10-20T19:55:09.318Z,0.60
2023-10-20T20:00:12.091Z,0.50
2023-10-20T20:05:13.959Z,0.60
2023-10-20T20:10:15.739Z,0.80
2023-10-20T20:15:18.458Z,0.70
2023-10-20T20:20:20.739Z,0.60
2023-10-20T20:25:22.459Z,0.70
2023-10-20T20:30:24.294Z,0.70
2023-10-20T20:35:25.987Z,0.70
2023-10-20T20:40:27.972Z,0.60
2023-10-20T20:45:29.696Z,0.60
2023-10-20T20:50:33.540Z,0.60
2023-10-20T20:55:36.566Z,0.70
2023-10-20T21:00:38.425Z,0.60
2023-10-20T21:05:40.327Z,0.67
2023-10-20T21:10:42.159Z,0.73
2023-10-20T21:15:44.548Z,0.50
2023-10-20T21:20:46.338Z,0.60
2023-10-20T21:25:48.064Z,0.70
2023-10-20T21:30:49.814Z,0.77
2023-10-20T21:35:51.573Z,0.70
2023-10-20T21:40:53.690Z,0.70
2023-10-20T21:45:59.422Z,0.70
2023-10-20T21:51:03.342Z,0.70
2023-10-20T21:56:10.184Z,0.90
2023-10-20T22:01:13.254Z,0.90
2023-10-20T22:06:15.083Z,0.70
2023-10-20T22:11:16.925Z,0.90
2023-10-20T22:16:18.767Z,1.10
2023-10-20T22:21:20.566Z,1.00
2023-10-20T22:26:22.343Z,1.17
2023-10-20T22:31:24.422Z,1.10
2023-10-20T22:36:26.578Z,0.87
2023-10-20T22:41:28.380Z,0.70
2023-10-20T22:46:30.585Z,0.63
2023-10-20T22:51:32.872Z,0.70
2023-10-20T22:56:34.577Z,0.80
2023-10-20T23:01:36.321Z,0.80
2023-10-20T23:06:38.152Z,0.60
2023-10-20T23:11:39.952Z,0.60
2023-10-20T23:16:45.163Z,0.93
2023-10-20T23:21:48.037Z,0.87
2023-10-20T23:26:49.929Z,0.73
2023-10-20T23:31:51.642Z,0.70
2023-10-20T23:36:53.361Z,0.70
2023-10-20T23:41:55.214Z,0.60
2023-10-20T23:46:57.374Z,0.60
2023-10-20T23:51:59.127Z,0.60
2023-10-20T23:57:01.008Z,0.87
